createdAt,value
2018-11-04T00:00:44.182Z,34.30
2018-11-04T00:01:44.426Z,34.90
2018-11-04T00:02:44.530Z,34.10
2018-11-04T00:03:44.706Z,34.20
2018-11-04T00:04:44.888Z,33.80
2018-11-04T00:05:45.054Z,33.20
2018-11-04T00:06:45.228Z,32.20
2018-11-04T00:07:45.446Z,37.00
2018-11-04T00:08:45.577Z,34.80
2018-11-04T00:09:45.752Z,31.80
2018-11-04T00:10:45.937Z,32.80
2018-11-04T00:11:46.101Z,32.50
2018-11-04T00:12:46.279Z,31.90
2018-11-04T00:13:46.453Z,29.90
2018-11-04T00:14:46.646Z,32.40
2018-11-04T00:15:46.802Z,31.40
2018-11-04T00:17:47.152Z,30.40
2018-11-04T00:18:47.323Z,30.90
2018-11-04T00:19:47.500Z,31.20
2018-11-04T00:20:47.675Z,29.80
2018-11-04T00:21:47.851Z,33.10
2018-11-04T00:22:48.026Z,33.80
2018-11-04T00:23:48.209Z,32.30
2018-11-04T00:24:48.381Z,35.60
2018-11-04T00:25:48.549Z,34.30
2018-11-04T00:26:48.764Z,35.00
2018-11-04T00:27:48.889Z,34.80
2018-11-04T00:28:49.065Z,34.40
2018-11-04T00:29:49.310Z,34.90
2018-11-04T00:30:49.415Z,35.70
2018-11-04T00:31:49.590Z,35.10
2018-11-04T00:32:49.762Z,32.20
2018-11-04T00:33:49.940Z,33.20
2018-11-04T00:34:50.119Z,34.40
2018-11-04T00:35:50.293Z,30.80
2018-11-04T00:36:50.472Z,34.20
2018-11-04T00:37:50.642Z,34.30
2018-11-04T00:38:50.813Z,33.30
2018-11-04T00:39:50.981Z,33.40
2018-11-04T00:40:51.147Z,32.40
2018-11-04T00:41:51.344Z,32.40
2018-11-04T00:42:51.494Z,33.30
2018-11-04T00:43:51.670Z,33.90
2018-11-04T00:44:51.844Z,35.50
2018-11-04T00:45:52.026Z,37.20
2018-11-04T00:46:52.190Z,36.10
2018-11-04T00:47:52.369Z,34.60
2018-11-04T00:48:52.583Z,35.30
2018-11-04T00:49:53.699Z,33.10
2018-11-04T00:50:52.871Z,33.10
2018-11-04T00:51:53.051Z,31.90
2018-11-04T00:52:53.224Z,34.40
2018-11-04T00:53:53.397Z,34.40
2018-11-04T00:54:53.578Z,35.20
2018-11-04T00:55:53.739Z,34.10
2018-11-04T00:56:53.925Z,38.20
2018-11-04T00:57:54.098Z,37.40
2018-11-04T00:58:54.270Z,36.60
2018-11-04T00:59:54.484Z,33.70
2018-11-04T01:00:54.636Z,34.60
2018-11-04T01:01:54.788Z,34.90
2018-11-04T01:02:54.972Z,34.30
2018-11-04T01:03:55.147Z,36.60
2018-11-04T01:04:55.319Z,34.70
2018-11-04T01:05:55.482Z,34.00
2018-11-04T01:06:55.675Z,33.20
2018-11-04T01:07:55.836Z,33.80
2018-11-04T01:08:56.128Z,34.00
2018-11-04T01:09:56.162Z,34.90
2018-11-04T01:10:56.345Z,34.50
2018-11-04T01:11:56.567Z,39.70
2018-11-04T01:12:56.686Z,38.40
2018-11-04T01:13:56.855Z,38.90
2018-11-04T01:14:57.031Z,38.80
2018-11-04T01:15:57.208Z,39.50
2018-11-04T01:16:57.380Z,38.70
2018-11-04T01:17:57.554Z,40.10
2018-11-04T01:18:57.730Z,38.20
2018-11-04T01:19:57.905Z,38.10
2018-11-04T01:20:58.084Z,41.30
2018-11-04T01:21:58.251Z,35.90
2018-11-04T01:22:58.424Z,39.30
2018-11-04T01:23:58.620Z,38.90
2018-11-04T01:24:58.764Z,42.80
2018-11-04T01:25:58.948Z,38.30
2018-11-04T01:26:59.121Z,39.10
2018-11-04T01:27:59.291Z,41.30
2018-11-04T01:28:59.456Z,44.30
2018-11-04T01:29:59.633Z,44.50
2018-11-04T01:30:59.824Z,46.80
2018-11-04T01:31:59.998Z,45.80
2018-11-04T01:33:00.180Z,45.30
2018-11-04T01:34:00.363Z,43.50
2018-11-04T01:35:00.531Z,43.40
2018-11-04T01:36:00.708Z,43.80
2018-11-04T01:37:00.889Z,45.70
2018-11-04T01:38:01.051Z,43.30
2018-11-04T01:39:01.219Z,42.60
2018-11-04T01:40:01.393Z,46.60
2018-11-04T01:41:01.578Z,44.50
2018-11-04T01:42:01.737Z,46.40
2018-11-04T01:43:01.911Z,46.30
2018-11-04T01:44:02.088Z,48.70
2018-11-04T01:45:02.262Z,43.70
2018-11-04T01:46:02.440Z,48.00
2018-11-04T01:47:02.617Z,45.60
2018-11-04T01:48:02.790Z,46.00
2018-11-04T01:49:02.964Z,46.10
2018-11-04T01:50:03.142Z,49.00
2018-11-04T01:51:03.317Z,52.10
2018-11-04T01:52:03.494Z,46.40
2018-11-04T01:53:03.674Z,47.00
2018-11-04T01:54:03.863Z,47.70
2018-11-04T01:55:04.018Z,46.40
2018-11-04T01:56:04.203Z,48.50
2018-11-04T01:57:04.372Z,43.50
2018-11-04T01:58:04.544Z,46.70
2018-11-04T01:59:04.737Z,44.50
2018-11-04T02:00:04.911Z,45.70
2018-11-04T02:01:05.078Z,45.60
2018-11-04T02:02:05.262Z,48.40
2018-11-04T02:03:05.416Z,47.60
2018-11-04T02:04:05.602Z,48.60
2018-11-04T02:05:05.767Z,46.50
2018-11-04T02:06:05.938Z,49.40
2018-11-04T02:07:06.114Z,49.00
2018-11-04T02:08:06.288Z,48.60
2018-11-04T02:09:06.466Z,45.70
2018-11-04T02:10:06.636Z,49.90
2018-11-04T02:11:06.811Z,50.00
2018-11-04T02:12:06.993Z,47.30
2018-11-04T02:13:07.160Z,50.40
2018-11-04T02:14:07.335Z,46.90
2018-11-04T02:15:07.513Z,49.90
2018-11-04T02:16:07.699Z,45.90
2018-11-04T02:17:07.869Z,46.60
2018-11-04T02:18:08.039Z,52.20
2018-11-04T02:19:08.215Z,48.50
2018-11-04T02:20:08.441Z,47.80
2018-11-04T02:21:08.559Z,48.30
2018-11-04T02:22:08.736Z,45.40
2018-11-04T02:23:08.914Z,48.00
2018-11-04T02:24:09.089Z,46.30
2018-11-04T02:25:09.262Z,45.80
2018-11-04T02:26:09.437Z,46.70
2018-11-04T02:27:09.611Z,48.70
2018-11-04T02:28:09.786Z,48.00
2018-11-04T02:29:09.961Z,44.80
2018-11-04T02:30:10.143Z,52.20
2018-11-04T02:31:10.318Z,54.50
2018-11-04T02:32:10.496Z,48.70
2018-11-04T02:33:10.665Z,54.00
2018-11-04T02:34:10.835Z,51.10
2018-11-04T02:35:11.012Z,49.00
2018-11-04T02:36:11.187Z,53.00
2018-11-04T02:37:11.366Z,55.00
2018-11-04T02:38:11.534Z,53.10
2018-11-04T02:39:11.717Z,51.30
2018-11-04T02:40:11.885Z,50.60
2018-11-04T02:41:12.067Z,52.80
2018-11-04T02:42:12.235Z,55.50
2018-11-04T02:43:12.409Z,52.00
2018-11-04T02:44:12.588Z,50.20
2018-11-04T02:45:12.763Z,53.20
2018-11-04T02:46:12.939Z,54.40
2018-11-04T02:47:13.115Z,53.60
2018-11-04T02:48:13.288Z,50.70
2018-11-04T02:49:13.462Z,55.50
2018-11-04T02:50:13.662Z,53.40
2018-11-04T02:51:13.829Z,53.60
2018-11-04T02:52:14.006Z,53.40
2018-11-04T02:53:14.170Z,51.80
2018-11-04T02:54:14.342Z,53.70
2018-11-04T02:55:14.519Z,54.50
2018-11-04T02:56:14.688Z,50.20
2018-11-04T02:57:14.865Z,54.20
2018-11-04T02:58:15.046Z,51.50
2018-11-04T02:59:15.212Z,52.70
2018-11-04T03:00:15.388Z,51.90
2018-11-04T03:01:15.562Z,54.50
2018-11-04T03:02:15.740Z,51.00
2018-11-04T03:03:15.915Z,55.50
2018-11-04T03:04:16.086Z,60.70
2018-11-04T03:05:16.270Z,53.50
2018-11-04T03:06:16.442Z,53.00
2018-11-04T03:07:16.612Z,49.90
2018-11-04T03:08:16.796Z,54.60
2018-11-04T03:09:16.966Z,55.10
2018-11-04T03:10:17.145Z,57.70
2018-11-04T03:11:17.320Z,56.30
2018-11-04T03:12:17.499Z,57.30
2018-11-04T03:13:17.671Z,58.00
2018-11-04T03:14:17.845Z,52.90
2018-11-04T03:15:18.018Z,55.50
2018-11-04T03:16:18.188Z,50.60
2018-11-04T03:17:18.365Z,55.40
2018-11-04T03:18:18.540Z,60.70
2018-11-04T03:19:18.720Z,57.90
2018-11-04T03:20:18.896Z,56.90
2018-11-04T03:21:19.070Z,51.30
2018-11-04T03:22:19.242Z,55.20
2018-11-04T03:23:19.416Z,53.20
2018-11-04T03:24:19.591Z,56.60
2018-11-04T03:25:19.777Z,54.60
2018-11-04T03:26:19.951Z,54.90
2018-11-04T03:27:20.133Z,55.90
2018-11-04T03:28:20.295Z,53.80
2018-11-04T03:29:20.471Z,52.90
2018-11-04T03:30:20.644Z,54.70
2018-11-04T03:31:20.835Z,52.00
2018-11-04T03:32:20.994Z,53.60
2018-11-04T03:33:21.175Z,51.50
2018-11-04T03:34:21.347Z,57.80
2018-11-04T03:35:21.523Z,56.60
2018-11-04T03:36:21.704Z,49.60
2018-11-04T03:37:21.868Z,54.70
2018-11-04T03:38:22.048Z,51.90
2018-11-04T03:39:22.220Z,56.60
2018-11-04T03:40:22.396Z,47.90
2018-11-04T03:41:22.571Z,53.40
2018-11-04T03:42:22.756Z,53.80
2018-11-04T03:43:22.938Z,51.30
2018-11-04T03:44:23.095Z,53.30
2018-11-04T03:45:23.270Z,52.70
2018-11-04T03:46:23.446Z,52.20
2018-11-04T03:47:23.618Z,52.80
2018-11-04T03:48:23.797Z,55.20
2018-11-04T03:49:23.971Z,52.90
2018-11-04T03:50:24.149Z,49.30
2018-11-04T03:51:24.323Z,52.50
2018-11-04T03:52:24.504Z,54.00
2018-11-04T03:53:24.673Z,54.30
2018-11-04T03:54:24.847Z,52.60
2018-11-04T03:55:25.025Z,53.20
2018-11-04T03:56:25.202Z,54.20
2018-11-04T03:57:25.375Z,52.10
2018-11-04T03:58:25.554Z,52.50
2018-11-04T03:59:25.720Z,53.80
2018-11-04T04:00:25.896Z,53.80
2018-11-04T04:01:26.074Z,52.80
2018-11-04T04:02:26.251Z,55.80
2018-11-04T04:03:26.427Z,51.40
2018-11-04T04:04:26.613Z,52.10
2018-11-04T04:05:26.755Z,51.40
2018-11-04T04:06:26.927Z,53.00
2018-11-04T04:07:27.109Z,50.70
2018-11-04T04:08:27.286Z,56.10
2018-11-04T04:09:27.464Z,55.50
2018-11-04T04:10:27.634Z,51.70
2018-11-04T04:11:27.806Z,51.40
2018-11-04T04:12:27.982Z,53.10
2018-11-04T04:13:28.150Z,55.30
2018-11-04T04:14:28.338Z,52.30
2018-11-04T04:15:28.491Z,52.60
2018-11-04T04:16:28.665Z,51.30
2018-11-04T04:17:28.841Z,52.90
2018-11-04T04:18:29.027Z,54.70
2018-11-04T04:19:29.205Z,54.40
2018-11-04T04:20:29.376Z,52.30
2018-11-04T04:21:29.557Z,53.80
2018-11-04T04:22:29.735Z,53.10
2018-11-04T04:23:29.921Z,56.20
2018-11-04T04:24:30.090Z,60.10
2018-11-04T04:25:30.265Z,55.80
2018-11-04T04:26:30.444Z,53.30
2018-11-04T04:27:30.616Z,53.00
2018-11-04T04:28:30.792Z,56.30
2018-11-04T04:29:30.972Z,58.90
2018-11-04T04:30:31.142Z,50.30
2018-11-04T04:31:31.321Z,58.00
2018-11-04T04:32:31.496Z,52.60
2018-11-04T04:33:31.685Z,52.40
2018-11-04T04:34:31.850Z,55.70
2018-11-04T04:35:32.028Z,51.30
2018-11-04T04:36:32.198Z,48.10
2018-11-04T04:37:32.375Z,56.20
2018-11-04T04:38:32.548Z,50.60
2018-11-04T04:39:32.724Z,51.20
2018-11-04T04:40:32.906Z,51.30
2018-11-04T04:41:33.070Z,55.70
2018-11-04T04:42:33.251Z,52.10
2018-11-04T04:43:33.431Z,51.20
2018-11-04T04:44:33.592Z,53.10
2018-11-04T04:45:33.772Z,49.60
2018-11-04T04:46:33.955Z,51.60
2018-11-04T04:47:34.121Z,54.10
2018-11-04T04:48:34.298Z,48.30
2018-11-04T04:49:34.470Z,49.70
2018-11-04T04:50:34.648Z,51.40
2018-11-04T04:51:34.822Z,53.00
2018-11-04T04:52:34.999Z,48.20
2018-11-04T04:53:35.174Z,52.50
2018-11-04T04:54:35.346Z,53.40
2018-11-04T04:55:35.520Z,50.80
2018-11-04T04:56:35.701Z,48.10
2018-11-04T04:57:35.875Z,50.90
2018-11-04T04:58:36.048Z,46.20
2018-11-04T04:59:36.208Z,56.00
2018-11-04T05:00:36.391Z,52.10
2018-11-04T05:01:36.566Z,45.70
2018-11-04T05:02:36.744Z,49.20
2018-11-04T05:03:36.917Z,53.10
2018-11-04T05:04:37.096Z,48.90
2018-11-04T05:05:37.266Z,50.00
2018-11-04T05:06:37.443Z,53.00
2018-11-04T05:07:37.625Z,51.90
2018-11-04T05:08:37.794Z,49.00
2018-11-04T05:09:37.966Z,51.30
2018-11-04T05:10:38.141Z,50.30
2018-11-04T05:11:38.320Z,49.90
2018-11-04T05:12:38.492Z,49.60
2018-11-04T05:13:38.664Z,49.30
2018-11-04T05:14:38.840Z,52.20
2018-11-04T05:15:39.018Z,49.10
2018-11-04T05:16:39.194Z,49.90
2018-11-04T05:17:39.371Z,46.90
2018-11-04T05:18:39.544Z,49.10
2018-11-04T05:19:39.720Z,50.50
2018-11-04T05:20:39.882Z,52.50
2018-11-04T05:21:40.076Z,49.10
2018-11-04T05:22:40.250Z,51.80
2018-11-04T05:23:40.427Z,50.10
2018-11-04T05:24:40.593Z,46.60
2018-11-04T05:25:40.757Z,49.20
2018-11-04T05:26:40.935Z,47.60
2018-11-04T05:27:41.110Z,50.90
2018-11-04T05:28:41.288Z,47.90
2018-11-04T05:29:41.457Z,49.10
2018-11-04T05:30:41.631Z,45.10
2018-11-04T05:31:41.806Z,50.90
2018-11-04T05:32:41.981Z,46.50
2018-11-04T05:33:42.155Z,53.00
2018-11-04T05:34:42.332Z,49.90
2018-11-04T05:35:42.512Z,53.70
2018-11-04T05:36:42.682Z,48.00
2018-11-04T05:37:42.862Z,50.30
2018-11-04T05:38:43.045Z,49.90
2018-11-04T05:39:43.210Z,50.60
2018-11-04T05:40:43.392Z,47.10
2018-11-04T05:41:43.564Z,49.90
2018-11-04T05:42:43.742Z,51.70
2018-11-04T05:43:43.914Z,51.70
2018-11-04T05:44:44.089Z,48.50
2018-11-04T05:45:44.265Z,47.80
2018-11-04T05:46:44.436Z,48.80
2018-11-04T05:47:44.612Z,48.70
2018-11-04T05:48:44.784Z,44.60
2018-11-04T05:49:44.957Z,51.30
2018-11-04T05:50:45.140Z,47.40
2018-11-04T05:51:45.315Z,48.90
2018-11-04T05:52:45.491Z,49.40
2018-11-04T05:53:45.666Z,47.90
2018-11-04T05:54:45.843Z,45.80
2018-11-04T05:55:46.020Z,45.50
2018-11-04T05:56:46.194Z,48.30
2018-11-04T05:57:46.373Z,49.00
2018-11-04T05:58:46.546Z,48.00
2018-11-04T05:59:46.720Z,47.70
2018-11-04T06:00:46.896Z,48.10
2018-11-04T06:01:47.069Z,48.60
2018-11-04T06:02:47.244Z,47.30
2018-11-04T06:03:47.420Z,48.50
2018-11-04T06:04:47.596Z,43.90
2018-11-04T06:05:47.771Z,48.30
2018-11-04T06:06:47.965Z,45.50
2018-11-04T06:07:48.120Z,46.70
2018-11-04T06:08:48.296Z,47.50
2018-11-04T06:09:48.471Z,50.30
2018-11-04T06:10:48.643Z,46.00
2018-11-04T06:11:48.821Z,47.60
2018-11-04T06:12:48.994Z,49.50
2018-11-04T06:13:49.175Z,47.80
2018-11-04T06:14:49.352Z,44.70
2018-11-04T06:15:49.518Z,45.70
2018-11-04T06:16:49.697Z,46.00
2018-11-04T06:17:49.872Z,48.50
2018-11-04T06:18:50.039Z,46.00
2018-11-04T06:19:50.214Z,50.50
2018-11-04T06:20:50.396Z,45.50
2018-11-04T06:21:50.562Z,49.00
2018-11-04T06:22:50.740Z,45.30
2018-11-04T06:23:50.915Z,49.40
2018-11-04T06:24:51.094Z,47.60
2018-11-04T06:25:51.266Z,48.10
2018-11-04T06:26:51.440Z,48.80
2018-11-04T06:27:51.617Z,52.60
2018-11-04T06:28:51.795Z,51.30
2018-11-04T06:29:51.972Z,51.30
2018-11-04T06:30:52.154Z,53.10
2018-11-04T06:31:52.317Z,49.40
2018-11-04T06:32:52.496Z,49.40
2018-11-04T06:33:52.668Z,53.20
2018-11-04T06:34:52.845Z,51.30
2018-11-04T06:35:53.022Z,50.00
2018-11-04T06:36:53.197Z,51.20
2018-11-04T06:37:53.382Z,53.90
2018-11-04T06:38:53.558Z,53.10
2018-11-04T06:39:53.736Z,52.00
2018-11-04T06:40:53.968Z,48.20
2018-11-04T06:42:54.258Z,49.70
2018-11-04T06:43:54.430Z,50.00
2018-11-04T06:44:54.606Z,53.00
2018-11-04T06:45:54.778Z,54.20
2018-11-04T06:46:54.995Z,51.90
2018-11-04T06:47:55.128Z,51.20
2018-11-04T06:48:55.304Z,53.50
2018-11-04T06:49:55.475Z,50.10
2018-11-04T06:50:55.654Z,55.70
2018-11-04T06:51:55.828Z,53.60
2018-11-04T06:52:56.014Z,51.90
2018-11-04T06:53:56.180Z,50.60
2018-11-04T06:54:56.363Z,55.60
2018-11-04T06:55:56.540Z,54.70
2018-11-04T06:56:56.707Z,53.40
2018-11-04T06:57:56.884Z,54.40
2018-11-04T06:58:57.062Z,49.80
2018-11-04T06:59:57.264Z,52.70
2018-11-04T07:00:57.408Z,53.20
2018-11-04T07:01:57.588Z,52.60
2018-11-04T07:02:57.762Z,51.20
2018-11-04T07:03:57.935Z,49.20
2018-11-04T07:04:58.116Z,49.50
2018-11-04T07:05:58.286Z,47.20
2018-11-04T07:06:58.466Z,48.80
2018-11-04T07:07:58.635Z,49.30
2018-11-04T07:08:58.871Z,48.40
2018-11-04T07:09:58.989Z,48.10
2018-11-04T07:10:59.162Z,48.80
2018-11-04T07:11:59.347Z,49.70
2018-11-04T07:12:59.516Z,48.20
2018-11-04T07:13:59.687Z,45.20
2018-11-04T07:14:59.866Z,53.70
2018-11-04T07:16:00.043Z,52.10
2018-11-04T07:17:00.218Z,51.80
2018-11-04T07:18:00.392Z,49.50
2018-11-04T07:19:00.575Z,44.90
2018-11-04T07:20:00.879Z,48.60
2018-11-04T07:21:00.926Z,48.00
2018-11-04T07:22:01.106Z,49.20
2018-11-04T07:23:01.283Z,44.50
2018-11-04T07:24:01.464Z,48.60
2018-11-04T07:25:01.628Z,48.90
2018-11-04T07:26:01.806Z,48.40
2018-11-04T07:27:01.981Z,45.70
2018-11-04T07:28:02.161Z,49.60
2018-11-04T07:29:02.330Z,47.80
2018-11-04T07:30:02.510Z,50.60
2018-11-04T07:31:02.675Z,47.00
2018-11-04T07:32:03.007Z,46.80
2018-11-04T07:33:03.022Z,47.20
2018-11-04T07:34:03.207Z,46.20
2018-11-04T07:35:03.374Z,48.80
2018-11-04T07:36:03.548Z,46.50
2018-11-04T07:37:03.725Z,46.30
2018-11-04T07:38:03.896Z,47.20
2018-11-04T07:39:04.074Z,43.30
2018-11-04T07:40:04.247Z,46.00
2018-11-04T07:41:04.423Z,44.40
2018-11-04T07:42:04.599Z,42.60
2018-11-04T07:43:04.773Z,46.20
2018-11-04T07:44:04.994Z,45.30
2018-11-04T07:45:05.127Z,46.50
2018-11-04T07:46:05.302Z,48.30
2018-11-04T07:47:05.484Z,46.40
2018-11-04T07:48:05.657Z,44.90
2018-11-04T07:49:05.832Z,44.40
2018-11-04T07:50:06.005Z,43.10
2018-11-04T07:51:06.181Z,46.20
2018-11-04T07:52:06.353Z,48.50
2018-11-04T07:53:06.529Z,41.30
2018-11-04T07:54:06.698Z,45.40
2018-11-04T07:55:06.882Z,42.90
2018-11-04T07:56:07.057Z,44.80
2018-11-04T07:57:07.322Z,46.90
2018-11-04T07:58:07.403Z,43.90
2018-11-04T07:59:07.576Z,47.60
2018-11-04T08:00:07.757Z,44.50
2018-11-04T08:01:08.045Z,43.10
2018-11-04T08:02:08.114Z,42.60
2018-11-04T08:03:08.285Z,42.90
2018-11-04T08:04:08.532Z,44.40
2018-11-04T08:05:08.635Z,45.70
2018-11-04T08:06:08.807Z,44.70
2018-11-04T08:07:08.981Z,43.10
2018-11-04T08:08:09.166Z,41.30
2018-11-04T08:09:09.344Z,45.00
2018-11-04T08:11:09.684Z,45.20
2018-11-04T08:12:09.856Z,45.60
2018-11-04T08:13:10.031Z,44.50
2018-11-04T08:14:10.216Z,45.60
2018-11-04T08:15:10.383Z,45.80
2018-11-04T08:16:10.565Z,44.70
2018-11-04T08:17:10.732Z,48.00
2018-11-04T08:18:10.919Z,45.30
2018-11-04T08:19:11.101Z,45.60
2018-11-04T08:20:11.266Z,46.90
2018-11-04T08:21:11.503Z,45.90
2018-11-04T08:22:11.624Z,45.00
2018-11-04T08:23:11.798Z,44.90
2018-11-04T08:24:11.984Z,45.30
2018-11-04T08:25:12.166Z,46.60
2018-11-04T08:27:12.534Z,46.90
2018-11-04T08:28:12.707Z,44.40
2018-11-04T08:29:12.884Z,44.70
2018-11-04T08:30:13.060Z,48.40
2018-11-04T08:31:13.235Z,44.80
2018-11-04T08:32:13.406Z,45.20
2018-11-04T08:33:13.581Z,46.70
2018-11-04T08:34:13.767Z,42.30
2018-11-04T08:35:13.936Z,45.90
2018-11-04T08:36:14.120Z,44.10
2018-11-04T08:37:14.287Z,42.20
2018-11-04T08:38:14.470Z,44.30
2018-11-04T08:39:14.640Z,46.30
2018-11-04T08:40:14.895Z,43.50
2018-11-04T08:41:14.992Z,41.20
2018-11-04T08:42:15.165Z,41.90
2018-11-04T08:43:15.351Z,46.40
2018-11-04T08:44:15.503Z,41.70
2018-11-04T08:45:15.684Z,43.30
2018-11-04T08:46:15.900Z,49.40
2018-11-04T08:47:16.064Z,42.90
2018-11-04T08:48:16.202Z,42.70
2018-11-04T08:49:16.383Z,43.50
2018-11-04T08:50:16.567Z,43.80
2018-11-04T08:51:16.736Z,44.30
2018-11-04T08:52:16.927Z,44.40
2018-11-04T08:53:17.097Z,44.50
2018-11-04T08:54:17.284Z,48.10
2018-11-04T08:55:17.448Z,44.10
2018-11-04T08:56:17.610Z,45.40
2018-11-04T08:57:17.796Z,44.20
2018-11-04T08:58:17.965Z,44.90
2018-11-04T08:59:18.146Z,46.50
2018-11-04T09:00:18.316Z,44.20
2018-11-04T09:01:18.498Z,45.90
2018-11-04T09:02:18.664Z,48.70
2018-11-04T09:03:18.852Z,45.90
2018-11-04T09:04:19.028Z,44.20
2018-11-04T09:05:19.202Z,45.90
2018-11-04T09:06:19.422Z,41.70
2018-11-04T09:07:19.563Z,47.10
2018-11-04T09:08:19.732Z,44.20
2018-11-04T09:09:19.903Z,39.80
2018-11-04T09:10:20.091Z,40.40
2018-11-04T09:11:20.265Z,43.20
2018-11-04T09:12:20.442Z,42.20
2018-11-04T09:13:20.621Z,43.60
2018-11-04T09:14:20.830Z,42.20
2018-11-04T09:15:20.971Z,43.50
2018-11-04T09:16:21.151Z,41.00
2018-11-04T09:17:21.323Z,40.40
2018-11-04T09:18:21.502Z,39.80
2018-11-04T09:19:21.686Z,40.40
2018-11-04T09:20:21.856Z,44.30
2018-11-04T09:21:22.069Z,43.50
2018-11-04T09:22:22.382Z,46.30
2018-11-04T09:23:22.425Z,45.90
2018-11-04T09:24:22.566Z,40.60
2018-11-04T09:25:22.761Z,40.60
2018-11-04T09:26:22.920Z,43.90
2018-11-04T09:27:23.095Z,41.70
2018-11-04T09:28:23.278Z,38.90
2018-11-04T09:29:23.449Z,38.00
2018-11-04T09:30:23.624Z,40.30
2018-11-04T09:31:23.807Z,37.40
2018-11-04T09:32:23.982Z,38.60
2018-11-04T09:33:24.161Z,38.20
2018-11-04T09:34:24.338Z,39.90
2018-11-04T09:35:24.665Z,38.80
2018-11-04T09:36:24.894Z,41.80
2018-11-04T09:37:24.867Z,41.70
2018-11-04T09:38:25.048Z,37.30
2018-11-04T09:39:25.222Z,37.30
2018-11-04T09:40:25.401Z,37.40
2018-11-04T09:41:25.572Z,38.80
2018-11-04T09:42:25.740Z,40.80
2018-11-04T09:43:25.918Z,37.70
2018-11-04T09:44:26.093Z,36.40
2018-11-04T09:45:26.275Z,43.60
2018-11-04T09:46:26.454Z,38.30
2018-11-04T09:47:26.621Z,39.80
2018-11-04T09:48:26.797Z,39.10
2018-11-04T09:49:26.976Z,40.30
2018-11-04T09:50:27.156Z,38.40
2018-11-04T09:51:27.325Z,36.90
2018-11-04T09:52:27.506Z,39.40
2018-11-04T09:53:27.682Z,38.90
2018-11-04T09:54:27.859Z,37.90
2018-11-04T09:55:28.038Z,41.50
2018-11-04T09:56:28.243Z,37.60
2018-11-04T09:57:28.399Z,36.50
2018-11-04T09:58:28.577Z,38.80
2018-11-04T09:59:28.744Z,39.50
2018-11-04T10:00:28.918Z,38.50
2018-11-04T10:01:29.100Z,38.80
2018-11-04T10:02:29.281Z,37.60
2018-11-04T10:03:29.450Z,37.70
2018-11-04T10:04:29.627Z,35.70
2018-11-04T10:05:32.635Z,36.40
2018-11-04T10:06:29.931Z,36.90
2018-11-04T10:07:30.109Z,36.00
2018-11-04T10:08:30.281Z,35.80
2018-11-04T10:09:30.471Z,35.90
2018-11-04T10:10:30.661Z,32.40
2018-11-04T10:11:30.802Z,35.10
2018-11-04T10:12:30.980Z,39.50
2018-11-04T10:13:31.156Z,35.90
2018-11-04T10:14:31.339Z,35.10
2018-11-04T10:15:31.510Z,36.70
2018-11-04T10:16:31.689Z,37.80
2018-11-04T10:17:31.865Z,35.20
2018-11-04T10:18:32.058Z,35.80
2018-11-04T10:19:32.351Z,42.10
2018-11-04T10:20:32.705Z,41.00
2018-11-04T10:21:32.584Z,47.00
2018-11-04T10:22:32.758Z,43.70
2018-11-04T10:23:32.927Z,43.50
2018-11-04T10:24:33.110Z,37.40
2018-11-04T10:25:33.284Z,35.10
2018-11-04T10:26:33.457Z,34.60
2018-11-04T10:27:33.635Z,36.80
2018-11-04T10:28:33.814Z,34.90
2018-11-04T10:29:33.987Z,36.00
2018-11-04T10:30:34.167Z,33.50
2018-11-04T10:31:34.358Z,32.00
2018-11-04T10:32:34.524Z,33.40
2018-11-04T10:33:34.701Z,32.80
2018-11-04T10:34:34.878Z,34.70
2018-11-04T10:35:35.070Z,33.20
2018-11-04T10:36:35.232Z,31.80
2018-11-04T10:37:35.421Z,32.70
2018-11-04T10:38:35.602Z,30.10
2018-11-04T10:39:35.771Z,31.00
2018-11-04T10:40:35.948Z,30.50
2018-11-04T10:41:36.135Z,35.60
2018-11-04T10:42:36.303Z,34.40
2018-11-04T10:43:36.487Z,32.30
2018-11-04T10:44:36.659Z,34.00
2018-11-04T10:45:36.842Z,28.60
2018-11-04T10:46:37.019Z,30.80
2018-11-04T10:47:37.188Z,28.90
2018-11-04T10:48:37.365Z,31.70
2018-11-04T10:49:37.600Z,32.20
2018-11-04T10:50:37.723Z,28.60
2018-11-04T10:51:37.896Z,30.10
2018-11-04T10:52:38.079Z,29.20
2018-11-04T10:53:38.256Z,29.20
2018-11-04T10:54:38.418Z,26.70
2018-11-04T10:55:38.635Z,30.10
2018-11-04T10:56:38.776Z,28.70
2018-11-04T10:57:38.953Z,28.10
2018-11-04T10:58:39.139Z,31.00
2018-11-04T10:59:39.307Z,28.40
2018-11-04T11:00:39.482Z,31.30
2018-11-04T11:01:39.670Z,29.70
2018-11-04T11:02:39.841Z,27.90
2018-11-04T11:03:40.016Z,30.10
2018-11-04T11:04:40.252Z,28.70
2018-11-04T11:05:40.363Z,27.00
2018-11-04T11:06:40.546Z,29.40
2018-11-04T11:07:40.715Z,28.60
2018-11-04T11:08:40.897Z,30.00
2018-11-04T11:09:41.070Z,28.60
2018-11-04T11:10:41.259Z,27.10
2018-11-04T11:11:41.433Z,30.60
2018-11-04T11:12:41.601Z,29.50
2018-11-04T11:13:41.784Z,34.20
2018-11-04T11:14:41.947Z,46.10
2018-11-04T11:15:42.118Z,32.40
2018-11-04T11:16:42.302Z,37.70
2018-11-04T11:17:42.473Z,32.50
2018-11-04T11:18:42.666Z,25.60
2018-11-04T11:19:42.806Z,26.20
2018-11-04T11:20:42.991Z,28.20
2018-11-04T11:21:43.161Z,29.00
2018-11-04T11:22:43.398Z,29.90
2018-11-04T11:23:43.519Z,33.40
2018-11-04T11:24:43.694Z,28.10
2018-11-04T11:25:43.870Z,30.60
2018-11-04T11:26:44.043Z,32.90
2018-11-04T11:27:44.216Z,30.20
2018-11-04T11:28:44.391Z,28.40
2018-11-04T11:29:44.562Z,31.60
2018-11-04T11:30:44.733Z,30.00
2018-11-04T11:31:44.924Z,26.50
2018-11-04T11:32:45.094Z,28.40
2018-11-04T11:33:45.274Z,24.50
2018-11-04T11:34:45.452Z,27.10
2018-11-04T11:35:45.624Z,24.40
2018-11-04T11:36:45.799Z,24.40
2018-11-04T11:37:46.008Z,26.70
2018-11-04T11:38:46.148Z,28.00
2018-11-04T11:39:46.327Z,26.40
2018-11-04T11:40:46.508Z,28.50
2018-11-04T11:41:46.681Z,25.70
2018-11-04T11:42:46.864Z,27.50
2018-11-04T11:43:47.029Z,25.90
2018-11-04T11:44:47.347Z,26.30
2018-11-04T11:45:47.386Z,29.30
2018-11-04T11:46:47.551Z,26.20
2018-11-04T11:47:47.733Z,29.10
2018-11-04T11:48:47.902Z,32.00
2018-11-04T11:49:48.077Z,36.40
2018-11-04T11:50:48.253Z,37.10
2018-11-04T11:51:48.432Z,48.60
2018-11-04T11:52:48.619Z,43.00
2018-11-04T11:53:48.783Z,53.20
2018-11-04T11:54:48.952Z,29.30
2018-11-04T11:55:49.131Z,31.50
2018-11-04T11:56:49.306Z,29.20
2018-11-04T11:57:49.489Z,54.30
2018-11-04T11:58:49.659Z,35.40
2018-11-04T11:59:49.845Z,33.10
2018-11-04T12:00:50.017Z,30.40
2018-11-04T12:01:50.188Z,28.00
2018-11-04T12:02:50.370Z,27.60
2018-11-04T12:03:50.551Z,28.50
2018-11-04T12:04:50.720Z,29.00
2018-11-04T12:05:50.905Z,27.90
2018-11-04T12:06:51.087Z,28.40
2018-11-04T12:07:51.259Z,27.70
2018-11-04T12:08:51.440Z,29.60
2018-11-04T12:09:51.620Z,27.30
2018-11-04T12:10:51.776Z,28.10
2018-11-04T12:11:51.958Z,30.00
2018-11-04T12:12:52.117Z,31.80
2018-11-04T12:13:52.300Z,25.10
2018-11-04T12:14:52.472Z,29.40
2018-11-04T12:15:52.649Z,26.70
2018-11-04T12:16:52.822Z,27.80
2018-11-04T12:17:53.184Z,27.60
2018-11-04T12:18:53.190Z,23.80
2018-11-04T12:19:53.366Z,24.50
2018-11-04T12:20:53.546Z,23.30
2018-11-04T12:21:53.721Z,24.10
2018-11-04T12:22:53.901Z,24.50
2018-11-04T12:23:54.257Z,24.00
2018-11-04T12:24:54.255Z,26.00
2018-11-04T12:25:54.432Z,24.60
2018-11-04T12:26:54.607Z,25.50
2018-11-04T12:27:54.837Z,27.50
2018-11-04T12:28:54.970Z,25.20
2018-11-04T12:29:55.143Z,27.70
2018-11-04T12:30:55.316Z,25.60
2018-11-04T12:31:55.493Z,26.70
2018-11-04T12:32:55.685Z,27.60
2018-11-04T12:33:55.846Z,26.50
2018-11-04T12:34:56.032Z,24.50
2018-11-04T12:35:56.202Z,24.10
2018-11-04T12:36:56.382Z,23.00
2018-11-04T12:37:56.553Z,23.70
2018-11-04T12:38:56.736Z,25.20
2018-11-04T12:39:56.930Z,26.30
2018-11-04T12:40:57.089Z,23.50
2018-11-04T12:41:57.275Z,26.40
2018-11-04T12:42:57.447Z,24.40
2018-11-04T12:43:57.622Z,29.30
2018-11-04T12:44:57.789Z,28.40
2018-11-04T12:45:57.969Z,24.50
2018-11-04T12:46:58.150Z,23.40
2018-11-04T12:47:58.338Z,23.70
2018-11-04T12:48:58.507Z,23.60
2018-11-04T12:49:58.686Z,21.70
2018-11-04T12:50:58.857Z,23.20
2018-11-04T12:51:59.052Z,21.30
2018-11-04T12:52:59.224Z,21.90
2018-11-04T12:53:59.386Z,19.90
2018-11-04T12:54:59.559Z,23.30
2018-11-04T12:55:59.742Z,23.10
2018-11-04T12:56:59.914Z,23.20
2018-11-04T12:58:00.095Z,22.30
2018-11-04T12:59:00.288Z,25.20